sensor_id;sensor_type;location;lat;lon;timestamp;pressure;altitude;pressure_sealevel;temperature;humidity
62402;BME280;48440;51.224;22.506;2024-02-23T00:00:39;97548.28;;;7.43;74.28
62402;BME280;48440;51.224;22.506;2024-02-23T00:03:05;97545.06;;;7.46;73.92
62402;BME280;48440;51.224;22.506;2024-02-23T00:05:30;97544.53;;;7.44;74.21
62402;BME280;48440;51.224;22.506;2024-02-23T00:07:57;97542.09;;;7.42;74.00
62402;BME280;48440;51.224;22.506;2024-02-23T00:10:23;97542.91;;;7.43;74.80
62402;BME280;48440;51.224;22.506;2024-02-23T00:12:48;97543.44;;;7.45;74.64
62402;BME280;48440;51.224;22.506;2024-02-23T00:15:14;97535.63;;;7.43;74.69
62402;BME280;48440;51.224;22.506;2024-02-23T00:17:40;97534.50;;;7.49;74.90
62402;BME280;48440;51.224;22.506;2024-02-23T00:20:08;97536.34;;;7.54;74.50
62402;BME280;48440;51.224;22.506;2024-02-23T00:22:36;97530.72;;;7.51;74.75
62402;BME280;48440;51.224;22.506;2024-02-23T00:25:01;97535.28;;;7.55;74.42
62402;BME280;48440;51.224;22.506;2024-02-23T00:27:27;97527.75;;;7.52;74.80
62402;BME280;48440;51.224;22.506;2024-02-23T00:29:53;97514.81;;;7.49;74.44
62402;BME280;48440;51.224;22.506;2024-02-23T00:32:19;97522.34;;;7.52;74.70
62402;BME280;48440;51.224;22.506;2024-02-23T00:34:44;97528.03;;;7.51;74.75
62402;BME280;48440;51.224;22.506;2024-02-23T00:37:10;97511.84;;;7.51;74.65
62402;BME280;48440;51.224;22.506;2024-02-23T00:39:35;97502.94;;;7.45;74.78
62402;BME280;48440;51.224;22.506;2024-02-23T00:42:03;97505.34;;;7.52;74.84
62402;BME280;48440;51.224;22.506;2024-02-23T00:44:28;97499.69;;;7.53;75.19
62402;BME280;48440;51.224;22.506;2024-02-23T00:46:54;97498.88;;;7.47;75.74
62402;BME280;48440;51.224;22.506;2024-02-23T00:49:20;97498.06;;;7.52;75.23
62402;BME280;48440;51.224;22.506;2024-02-23T00:51:45;97493.50;;;7.47;75.90
62402;BME280;48440;51.224;22.506;2024-02-23T00:54:11;97492.34;;;7.54;75.05
62402;BME280;48440;51.224;22.506;2024-02-23T00:56:37;97494.84;;;7.50;75.73
62402;BME280;48440;51.224;22.506;2024-02-23T00:59:02;97491.00;;;7.56;75.64
62402;BME280;48440;51.224;22.506;2024-02-23T01:01:28;97492.59;;;7.57;75.32
62402;BME280;48440;51.224;22.506;2024-02-23T01:03:54;97484.25;;;7.59;75.44
62402;BME280;48440;51.224;22.506;2024-02-23T01:06:19;97489.63;;;7.59;75.53
62402;BME280;48440;51.224;22.506;2024-02-23T01:08:45;97493.66;;;7.61;75.61
62402;BME280;48440;51.224;22.506;2024-02-23T01:11:10;97483.97;;;7.60;75.51
62402;BME280;48440;51.224;22.506;2024-02-23T01:13:36;97489.88;;;7.62;75.46
62402;BME280;48440;51.224;22.506;2024-02-23T01:16:02;97480.44;;;7.60;75.73
62402;BME280;48440;51.224;22.506;2024-02-23T01:18:28;97480.69;;;7.68;75.34
62402;BME280;48440;51.224;22.506;2024-02-23T01:20:55;97489.34;;;7.65;75.53
62402;BME280;48440;51.224;22.506;2024-02-23T01:23:21;97489.63;;;7.59;75.61
62402;BME280;48440;51.224;22.506;2024-02-23T01:25:47;97475.03;;;7.65;75.52
62402;BME280;48440;51.224;22.506;2024-02-23T01:28:12;97482.28;;;7.69;75.68
62402;BME280;48440;51.224;22.506;2024-02-23T01:30:38;97490.41;;;7.69;75.68
62402;BME280;48440;51.224;22.506;2024-02-23T01:33:04;97471.50;;;7.69;75.85
62402;BME280;48440;51.224;22.506;2024-02-23T01:35:30;97463.66;;;7.73;75.83
62402;BME280;48440;51.224;22.506;2024-02-23T01:37:56;97466.63;;;7.71;75.75
62402;BME280;48440;51.224;22.506;2024-02-23T01:43:03;97463.91;;;7.76;75.35
62402;BME280;48440;51.224;22.506;2024-02-23T01:45:30;97452.28;;;7.76;75.43
62402;BME280;48440;51.224;22.506;2024-02-23T01:47:57;97454.44;;;7.79;75.19
62402;BME280;48440;51.224;22.506;2024-02-23T01:50:26;97457.13;;;7.79;75.12
62402;BME280;48440;51.224;22.506;2024-02-23T01:52:56;97460.31;;;7.81;75.43
62402;BME280;48440;51.224;22.506;2024-02-23T01:55:23;97457.34;;;7.82;75.07
62402;BME280;48440;51.224;22.506;2024-02-23T01:57:49;97450.13;;;7.78;74.84
62402;BME280;48440;51.224;22.506;2024-02-23T02:00:17;97454.13;;;7.80;75.32
62402;BME280;48440;51.224;22.506;2024-02-23T02:02:43;97439.03;;;7.79;75.00
62402;BME280;48440;51.224;22.506;2024-02-23T02:05:10;97440.72;;;7.70;75.65
62402;BME280;48440;51.224;22.506;2024-02-23T02:07:37;97442.03;;;7.73;75.44
62402;BME280;48440;51.224;22.506;2024-02-23T02:10:04;97444.13;;;7.81;75.17
62402;BME280;48440;51.224;22.506;2024-02-23T02:12:32;97441.94;;;7.83;75.18
62402;BME280;48440;51.224;22.506;2024-02-23T02:14:57;97446.25;;;7.84;75.24
62402;BME280;48440;51.224;22.506;2024-02-23T02:17:25;97444.91;;;7.87;74.97
62402;BME280;48440;51.224;22.506;2024-02-23T02:19:52;97437.88;;;7.86;75.06
62402;BME280;48440;51.224;22.506;2024-02-23T02:22:18;97437.59;;;7.87;74.65
62402;BME280;48440;51.224;22.506;2024-02-23T02:24:51;97443.00;;;7.87;74.63
62402;BME280;48440;51.224;22.506;2024-02-23T02:27:20;97436.28;;;7.84;74.61
62402;BME280;48440;51.224;22.506;2024-02-23T02:29:45;97437.56;;;7.92;74.67
62402;BME280;48440;51.224;22.506;2024-02-23T02:32:11;97438.63;;;7.96;74.77
62402;BME280;48440;51.224;22.506;2024-02-23T02:34:37;97437.31;;;7.89;74.47
62402;BME280;48440;51.224;22.506;2024-02-23T02:37:03;97431.38;;;7.92;74.37
62402;BME280;48440;51.224;22.506;2024-02-23T02:39:29;97427.59;;;7.88;74.64
62402;BME280;48440;51.224;22.506;2024-02-23T02:41:54;97421.38;;;7.92;74.39
62402;BME280;48440;51.224;22.506;2024-02-23T02:44:20;97424.88;;;7.93;74.57
62402;BME280;48440;51.224;22.506;2024-02-23T02:46:45;97430.25;;;7.98;74.05
62402;BME280;48440;51.224;22.506;2024-02-23T02:49:11;97435.13;;;7.96;74.44
62402;BME280;48440;51.224;22.506;2024-02-23T02:51:37;97432.41;;;7.96;74.27
62402;BME280;48440;51.224;22.506;2024-02-23T02:54:02;97431.31;;;7.97;74.40
62402;BME280;48440;51.224;22.506;2024-02-23T02:56:28;97439.69;;;8.00;74.08
62402;BME280;48440;51.224;22.506;2024-02-23T02:58:57;97430.47;;;8.01;73.78
62402;BME280;48440;51.224;22.506;2024-02-23T03:01:22;97433.47;;;8.00;74.11
62402;BME280;48440;51.224;22.506;2024-02-23T03:03:48;97440.47;;;8.01;73.83
62402;BME280;48440;51.224;22.506;2024-02-23T03:06:14;97438.06;;;7.99;74.18
62402;BME280;48440;51.224;22.506;2024-02-23T03:08:42;97440.19;;;8.02;73.81
62402;BME280;48440;51.224;22.506;2024-02-23T03:11:08;97453.19;;;8.00;73.72
62402;BME280;48440;51.224;22.506;2024-02-23T03:13:34;97445.06;;;8.00;73.77
62402;BME280;48440;51.224;22.506;2024-02-23T03:15:59;97453.63;;;8.07;74.04
62402;BME280;48440;51.224;22.506;2024-02-23T03:18:25;97445.03;;;8.05;74.03
62402;BME280;48440;51.224;22.506;2024-02-23T03:20:53;97451.47;;;8.09;73.68
62402;BME280;48440;51.224;22.506;2024-02-23T03:23:19;97453.63;;;8.07;73.85
62402;BME280;48440;51.224;22.506;2024-02-23T03:25:44;97447.75;;;8.05;74.06
62402;BME280;48440;51.224;22.506;2024-02-23T03:28:10;97458.75;;;8.09;73.78
62402;BME280;48440;51.224;22.506;2024-02-23T03:30:36;97444.16;;;8.10;73.86
62402;BME280;48440;51.224;22.506;2024-02-23T03:33:01;97450.38;;;8.10;73.68
62402;BME280;48440;51.224;22.506;2024-02-23T03:35:27;97456.69;;;8.01;74.30
62402;BME280;48440;51.224;22.506;2024-02-23T03:37:52;97449.84;;;8.08;74.08
62402;BME280;48440;51.224;22.506;2024-02-23T03:40:18;97453.88;;;8.11;74.46
62402;BME280;48440;51.224;22.506;2024-02-23T03:42:44;97459.03;;;8.07;74.82
62402;BME280;48440;51.224;22.506;2024-02-23T03:45:10;97464.97;;;8.09;75.00
62402;BME280;48440;51.224;22.506;2024-02-23T03:47:36;97460.72;;;8.03;76.47
62402;BME280;48440;51.224;22.506;2024-02-23T03:50:01;97459.16;;;7.97;76.34
62402;BME280;48440;51.224;22.506;2024-02-23T03:52:27;97465.34;;;7.98;76.89
62402;BME280;48440;51.224;22.506;2024-02-23T03:54:53;97454.06;;;7.91;77.24
62402;BME280;48440;51.224;22.506;2024-02-23T03:57:20;97459.19;;;7.92;77.18
62402;BME280;48440;51.224;22.506;2024-02-23T03:59:55;97455.38;;;7.93;77.16
62402;BME280;48440;51.224;22.506;2024-02-23T04:02:21;97460.50;;;7.95;76.72
62402;BME280;48440;51.224;22.506;2024-02-23T04:04:47;97457.81;;;7.95;76.91
62402;BME280;48440;51.224;22.506;2024-02-23T04:07:13;97461.03;;;7.97;76.32
62402;BME280;48440;51.224;22.506;2024-02-23T04:09:39;97468.06;;;7.98;76.51
62402;BME280;48440;51.224;22.506;2024-02-23T04:12:05;97467.78;;;7.99;76.36
62402;BME280;48440;51.224;22.506;2024-02-23T04:14:33;97465.09;;;7.94;76.40
62402;BME280;48440;51.224;22.506;2024-02-23T04:17:04;97462.13;;;7.96;76.11
62402;BME280;48440;51.224;22.506;2024-02-23T04:19:30;97463.75;;;7.97;76.28
62402;BME280;48440;51.224;22.506;2024-02-23T04:21:56;97464.28;;;7.99;76.26
62402;BME280;48440;51.224;22.506;2024-02-23T04:24:22;97460.47;;;8.00;76.26
62402;BME280;48440;51.224;22.506;2024-02-23T04:26:47;97481.00;;;8.01;76.50
62402;BME280;48440;51.224;22.506;2024-02-23T04:29:13;97464.03;;;7.95;76.87
62402;BME280;48440;51.224;22.506;2024-02-23T04:31:39;97477.81;;;7.94;77.52
62402;BME280;48440;51.224;22.506;2024-02-23T04:34:04;97477.81;;;7.94;77.12
62402;BME280;48440;51.224;22.506;2024-02-23T04:36:30;97477.00;;;7.93;77.52
62402;BME280;48440;51.224;22.506;2024-02-23T04:38:56;97469.94;;;7.97;77.34
62402;BME280;48440;51.224;22.506;2024-02-23T04:41:22;97465.91;;;7.95;77.64
62402;BME280;48440;51.224;22.506;2024-02-23T04:43:48;97470.81;;;7.88;78.03
62402;BME280;48440;51.224;22.506;2024-02-23T04:46:13;97478.91;;;7.88;78.43
62402;BME280;48440;51.224;22.506;2024-02-23T04:48:39;97477.84;;;7.89;78.48
62402;BME280;48440;51.224;22.506;2024-02-23T04:51:05;97478.63;;;7.89;78.34
62402;BME280;48440;51.224;22.506;2024-02-23T04:53:31;97479.75;;;7.83;79.07
62402;BME280;48440;51.224;22.506;2024-02-23T04:55:57;97490.00;;;7.86;79.04
62402;BME280;48440;51.224;22.506;2024-02-23T04:58:23;97490.81;;;7.87;79.62
62402;BME280;48440;51.224;22.506;2024-02-23T05:00:49;97495.41;;;7.86;79.51
62402;BME280;48440;51.224;22.506;2024-02-23T05:03:15;97488.94;;;7.82;80.02
62402;BME280;48440;51.224;22.506;2024-02-23T05:05:41;97494.34;;;7.82;79.94
62402;BME280;48440;51.224;22.506;2024-02-23T05:08:07;97497.84;;;7.82;80.46
62402;BME280;48440;51.224;22.506;2024-02-23T05:10:33;97500.84;;;7.81;80.21
62402;BME280;48440;51.224;22.506;2024-02-23T05:12:58;97502.78;;;7.75;80.31
62402;BME280;48440;51.224;22.506;2024-02-23T05:15:24;97505.75;;;7.74;80.75
62402;BME280;48440;51.224;22.506;2024-02-23T05:17:50;97506.03;;;7.72;81.02
62402;BME280;48440;51.224;22.506;2024-02-23T05:20:15;97510.56;;;7.82;80.34
62402;BME280;48440;51.224;22.506;2024-02-23T05:22:41;97511.72;;;7.71;80.86
62402;BME280;48440;51.224;22.506;2024-02-23T05:25:07;97510.31;;;7.78;80.85
62402;BME280;48440;51.224;22.506;2024-02-23T05:27:33;97516.00;;;7.77;80.71
62402;BME280;48440;51.224;22.506;2024-02-23T05:29:59;97520.03;;;7.79;80.79
62402;BME280;48440;51.224;22.506;2024-02-23T05:32:25;97522.50;;;7.76;81.54
62402;BME280;48440;51.224;22.506;2024-02-23T05:34:51;97525.47;;;7.74;80.76
62402;BME280;48440;51.224;22.506;2024-02-23T05:37:18;97521.19;;;7.68;81.31
62402;BME280;48440;51.224;22.506;2024-02-23T05:39:44;97533.56;;;7.74;81.07
62402;BME280;48440;51.224;22.506;2024-02-23T05:42:11;97531.41;;;7.71;81.50
62402;BME280;48440;51.224;22.506;2024-02-23T05:44:39;97538.47;;;7.67;81.30
62402;BME280;48440;51.224;22.506;2024-02-23T05:47:05;97536.56;;;7.68;81.71
62402;BME280;48440;51.224;22.506;2024-02-23T05:49:30;97540.34;;;7.72;80.88
62402;BME280;48440;51.224;22.506;2024-02-23T05:51:56;97546.28;;;7.69;81.90
62402;BME280;48440;51.224;22.506;2024-02-23T05:54:22;97548.44;;;7.67;81.82
62402;BME280;48440;51.224;22.506;2024-02-23T05:56:48;97552.50;;;7.69;82.44
62402;BME280;48440;51.224;22.506;2024-02-23T05:59:15;97549.50;;;7.71;81.97
62402;BME280;48440;51.224;22.506;2024-02-23T06:01:40;97549.78;;;7.69;81.49
62402;BME280;48440;51.224;22.506;2024-02-23T06:04:06;97560.03;;;7.72;81.93
62402;BME280;48440;51.224;22.506;2024-02-23T06:06:32;97555.44;;;7.73;82.09
62402;BME280;48440;51.224;22.506;2024-02-23T06:08:57;97561.13;;;7.71;82.15
62402;BME280;48440;51.224;22.506;2024-02-23T06:11:23;97572.47;;;7.68;82.68
62402;BME280;48440;51.224;22.506;2024-02-23T06:13:48;97573.53;;;7.72;82.41
62402;BME280;48440;51.224;22.506;2024-02-23T06:16:14;97572.47;;;7.68;83.10
62402;BME280;48440;51.224;22.506;2024-02-23T06:18:40;97574.91;;;7.70;82.95
62402;BME280;48440;51.224;22.506;2024-02-23T06:21:14;97585.16;;;7.68;83.43
62402;BME280;48440;51.224;22.506;2024-02-23T06:23:41;97575.97;;;7.69;83.49
62402;BME280;48440;51.224;22.506;2024-02-23T06:26:07;97584.63;;;7.66;83.83
62402;BME280;48440;51.224;22.506;2024-02-23T06:28:33;97583.56;;;7.67;83.79
62402;BME280;48440;51.224;22.506;2024-02-23T06:30:59;97585.72;;;7.65;84.45
62402;BME280;48440;51.224;22.506;2024-02-23T06:33:24;97586.81;;;7.64;84.45
62402;BME280;48440;51.224;22.506;2024-02-23T06:35:50;97597.31;;;7.65;84.53
62402;BME280;48440;51.224;22.506;2024-02-23T06:38:17;97597.59;;;7.69;84.65
62402;BME280;48440;51.224;22.506;2024-02-23T06:40:43;97598.41;;;7.69;84.86
62402;BME280;48440;51.224;22.506;2024-02-23T06:43:08;97597.59;;;7.69;84.95
62402;BME280;48440;51.224;22.506;2024-02-23T06:45:34;97602.72;;;7.65;85.03
62402;BME280;48440;51.224;22.506;2024-02-23T06:48:00;97600.03;;;7.60;85.57
62402;BME280;48440;51.224;22.506;2024-02-23T06:50:25;97605.44;;;7.60;85.85
62402;BME280;48440;51.224;22.506;2024-02-23T06:52:51;97602.72;;;7.65;85.40
62402;BME280;48440;51.224;22.506;2024-02-23T06:55:17;97606.25;;;7.61;85.54
62402;BME280;48440;51.224;22.506;2024-02-23T06:57:43;97606.25;;;7.56;85.47
62402;BME280;48440;51.224;22.506;2024-02-23T07:00:09;97607.31;;;7.65;85.74
62402;BME280;48440;51.224;22.506;2024-02-23T07:02:35;97608.13;;;7.65;85.26
62402;BME280;48440;51.224;22.506;2024-02-23T07:05:02;97617.56;;;7.68;84.79
62402;BME280;48440;51.224;22.506;2024-02-23T07:07:32;97615.66;;;7.73;84.98
62402;BME280;48440;51.224;22.506;2024-02-23T07:09:59;97619.72;;;7.66;86.08
62402;BME280;48440;51.224;22.506;2024-02-23T07:12:25;97625.13;;;7.71;85.70
62402;BME280;48440;51.224;22.506;2024-02-23T07:14:53;97626.47;;;7.68;86.29
62402;BME280;48440;51.224;22.506;2024-02-23T07:17:19;97626.19;;;7.70;86.04
62402;BME280;48440;51.224;22.506;2024-02-23T07:19:45;97631.31;;;7.71;85.93
62402;BME280;48440;51.224;22.506;2024-02-23T07:22:10;97628.91;;;7.70;85.76
62402;BME280;48440;51.224;22.506;2024-02-23T07:24:41;97637.81;;;7.70;86.30
62402;BME280;48440;51.224;22.506;2024-02-23T07:27:06;97637.78;;;7.75;85.84
62402;BME280;48440;51.224;22.506;2024-02-23T07:29:32;97633.97;;;7.81;86.17
62402;BME280;48440;51.224;22.506;2024-02-23T07:31:58;97637.19;;;7.83;86.18
62402;BME280;48440;51.224;22.506;2024-02-23T07:34:24;97645.84;;;7.86;85.30
62402;BME280;48440;51.224;22.506;2024-02-23T07:36:53;97641.78;;;7.88;85.34
62402;BME280;48440;51.224;22.506;2024-02-23T07:39:20;97644.22;;;7.84;85.44
62402;BME280;48440;51.224;22.506;2024-02-23T07:41:46;97636.38;;;7.88;85.96
62402;BME280;48440;51.224;22.506;2024-02-23T07:44:12;97641.75;;;7.93;85.49
62402;BME280;48440;51.224;22.506;2024-02-23T07:46:45;97645.00;;;7.95;84.99
62402;BME280;48440;51.224;22.506;2024-02-23T07:49:11;97640.41;;;7.91;85.59
62402;BME280;48440;51.224;22.506;2024-02-23T07:51:36;97643.09;;;7.96;85.84
62402;BME280;48440;51.224;22.506;2024-02-23T07:54:02;97651.75;;;7.88;86.19
62402;BME280;48440;51.224;22.506;2024-02-23T07:56:28;97652.31;;;7.90;86.70
62402;BME280;48440;51.224;22.506;2024-02-23T07:58:55;97657.97;;;7.88;86.71
62402;BME280;48440;51.224;22.506;2024-02-23T08:01:21;97658.81;;;7.83;87.08
62402;BME280;48440;51.224;22.506;2024-02-23T08:03:47;97664.19;;;7.83;87.27
62402;BME280;48440;51.224;22.506;2024-02-23T08:06:12;97653.66;;;7.87;87.17
62402;BME280;48440;51.224;22.506;2024-02-23T08:08:38;97653.66;;;7.92;86.89
62402;BME280;48440;51.224;22.506;2024-02-23T08:11:04;97656.91;;;7.89;87.53
62402;BME280;48440;51.224;22.506;2024-02-23T08:13:30;97654.19;;;7.89;87.50
62402;BME280;48440;51.224;22.506;2024-02-23T08:15:58;97657.69;;;7.95;86.93
62402;BME280;48440;51.224;22.506;2024-02-23T08:18:24;97653.91;;;7.91;87.80
62402;BME280;48440;51.224;22.506;2024-02-23T08:20:50;97662.00;;;7.96;87.50
62402;BME280;48440;51.224;22.506;2024-02-23T08:23:16;97664.72;;;7.91;87.91
62402;BME280;48440;51.224;22.506;2024-02-23T08:25:44;97653.13;;;7.85;88.34
62402;BME280;48440;51.224;22.506;2024-02-23T08:28:10;97670.41;;;7.89;88.60
62402;BME280;48440;51.224;22.506;2024-02-23T08:30:36;97665.81;;;7.90;88.09
62402;BME280;48440;51.224;22.506;2024-02-23T08:33:01;97667.97;;;7.88;88.96
62402;BME280;48440;51.224;22.506;2024-02-23T08:35:27;97666.06;;;7.93;88.18
62402;BME280;48440;51.224;22.506;2024-02-23T08:37:53;97670.66;;;7.93;88.05
62402;BME280;48440;51.224;22.506;2024-02-23T08:40:19;97676.59;;;7.95;88.29
62402;BME280;48440;51.224;22.506;2024-02-23T08:42:45;97674.69;;;8.00;87.69
62402;BME280;48440;51.224;22.506;2024-02-23T08:45:13;97676.78;;;8.08;87.75
62402;BME280;48440;51.224;22.506;2024-02-23T08:47:39;97683.81;;;8.09;88.44
62402;BME280;48440;51.224;22.506;2024-02-23T08:50:05;97694.69;;;7.99;88.61
62402;BME280;48440;51.224;22.506;2024-02-23T08:52:31;97689.22;;;8.09;87.88
62402;BME280;48440;51.224;22.506;2024-02-23T08:54:57;97692.16;;;8.13;88.16
62402;BME280;48440;51.224;22.506;2024-02-23T08:57:23;97680.28;;;8.14;88.52
62402;BME280;48440;51.224;22.506;2024-02-23T08:59:49;97690.81;;;8.10;88.24
62402;BME280;48440;51.224;22.506;2024-02-23T09:02:15;97697.31;;;8.14;88.08
62402;BME280;48440;51.224;22.506;2024-02-23T09:04:40;97697.03;;;8.11;88.58
62402;BME280;48440;51.224;22.506;2024-02-23T09:07:06;97698.13;;;8.10;88.76
62402;BME280;48440;51.224;22.506;2024-02-23T09:09:32;97700.56;;;8.11;88.94
62402;BME280;48440;51.224;22.506;2024-02-23T09:11:58;97695.69;;;8.08;89.15
62402;BME280;48440;51.224;22.506;2024-02-23T09:14:23;97703.25;;;8.16;88.70
62402;BME280;48440;51.224;22.506;2024-02-23T09:16:51;97712.16;;;8.17;88.38
62402;BME280;48440;51.224;22.506;2024-02-23T09:19:17;97710.28;;;8.12;88.35
62402;BME280;48440;51.224;22.506;2024-02-23T09:21:42;97711.06;;;8.18;88.70
62402;BME280;48440;51.224;22.506;2024-02-23T09:24:08;97705.13;;;8.21;88.48
62402;BME280;48440;51.224;22.506;2024-02-23T09:26:34;97715.66;;;8.23;88.30
62402;BME280;48440;51.224;22.506;2024-02-23T09:28:59;97717.78;;;8.26;87.69
62402;BME280;48440;51.224;22.506;2024-02-23T09:31:25;97720.25;;;8.22;87.50
62402;BME280;48440;51.224;22.506;2024-02-23T09:33:54;97724.53;;;8.28;88.03
62402;BME280;48440;51.224;22.506;2024-02-23T09:36:20;97730.19;;;8.32;87.74
62402;BME280;48440;51.224;22.506;2024-02-23T09:38:47;97726.69;;;8.31;88.18
62402;BME280;48440;51.224;22.506;2024-02-23T09:41:20;97728.06;;;8.24;88.54
62402;BME280;48440;51.224;22.506;2024-02-23T09:43:47;97729.69;;;8.25;89.55
62402;BME280;48440;51.224;22.506;2024-02-23T09:46:17;97733.47;;;8.24;89.07
62402;BME280;48440;51.224;22.506;2024-02-23T09:48:43;97736.44;;;8.27;88.49
62402;BME280;48440;51.224;22.506;2024-02-23T09:51:10;97730.81;;;8.13;89.40
62402;BME280;48440;51.224;22.506;2024-02-23T09:53:37;97736.75;;;8.15;89.57
62402;BME280;48440;51.224;22.506;2024-02-23T09:56:05;97735.69;;;8.11;89.16
62402;BME280;48440;51.224;22.506;2024-02-23T09:58:31;97742.16;;;8.10;89.37
62402;BME280;48440;51.224;22.506;2024-02-23T10:00:58;97742.97;;;8.11;89.60
62402;BME280;48440;51.224;22.506;2024-02-23T10:03:27;97742.69;;;8.12;89.65
62402;BME280;48440;51.224;22.506;2024-02-23T10:05:54;97734.59;;;8.07;89.39
62402;BME280;48440;51.224;22.506;2024-02-23T10:08:20;97739.53;;;8.00;89.96
62402;BME280;48440;51.224;22.506;2024-02-23T10:10:46;97740.59;;;8.04;89.89
62402;BME280;48440;51.224;22.506;2024-02-23T10:13:19;97737.88;;;8.04;89.51
62402;BME280;48440;51.224;22.506;2024-02-23T10:15:50;97740.28;;;8.06;89.62
62402;BME280;48440;51.224;22.506;2024-02-23T10:18:16;97744.34;;;8.08;89.20
62402;BME280;48440;51.224;22.506;2024-02-23T10:21:09;97745.69;;;8.06;89.63
62402;BME280;48440;51.224;22.506;2024-02-23T10:41:47;97756.50;;;8.06;90.33
62402;BME280;48440;51.224;22.506;2024-02-23T10:44:24;97759.72;;;8.08;90.17
62402;BME280;48440;51.224;22.506;2024-02-23T10:47:06;97760.59;;;8.03;90.87
62402;BME280;48440;51.224;22.506;2024-02-23T10:49:38;97752.75;;;8.02;90.69
62402;BME280;48440;51.224;22.506;2024-02-23T10:52:09;97757.63;;;8.00;90.57
62402;BME280;48440;51.224;22.506;2024-02-23T10:54:49;97761.69;;;7.97;90.96
62402;BME280;48440;51.224;22.506;2024-02-23T10:57:22;97763.84;;;8.00;90.36
62402;BME280;48440;51.224;22.506;2024-02-23T10:59:48;97771.66;;;8.02;90.31
62402;BME280;48440;51.224;22.506;2024-02-23T11:02:20;97767.06;;;7.97;90.57
62402;BME280;48440;51.224;22.506;2024-02-23T11:04:57;97777.06;;;7.97;89.94
62402;BME280;48440;51.224;22.506;2024-02-23T11:07:23;97776.00;;;7.98;91.14
62402;BME280;48440;51.224;22.506;2024-02-23T11:10:24;97785.97;;;8.02;89.87
62402;BME280;48440;51.224;22.506;2024-02-23T11:13:07;97783.28;;;7.97;90.20
62402;BME280;48440;51.224;22.506;2024-02-23T11:15:42;97783.81;;;7.99;89.78
62402;BME280;48440;51.224;22.506;2024-02-23T11:18:39;97783.56;;;8.01;89.50
62402;BME280;48440;51.224;22.506;2024-02-23T11:21:10;97780.81;;;8.06;90.17
62402;BME280;48440;51.224;22.506;2024-02-23T11:23:48;97778.16;;;8.01;90.20
62402;BME280;48440;51.224;22.506;2024-02-23T11:26:22;97783.00;;;8.04;89.63
62402;BME280;48440;51.224;22.506;2024-02-23T11:28:50;97776.25;;;8.01;90.13
62402;BME280;48440;51.224;22.506;2024-02-23T11:31:58;97783.81;;;8.04;90.37
62402;BME280;48440;51.224;22.506;2024-02-23T11:51:10;97790.03;;;8.00;90.47
62402;BME280;48440;51.224;22.506;2024-02-23T11:59:01;97798.41;;;8.03;90.67
62402;BME280;48440;51.224;22.506;2024-02-23T12:01:33;97799.22;;;8.04;91.15
62402;BME280;48440;51.224;22.506;2024-02-23T12:04:26;97795.16;;;8.01;91.69
62402;BME280;48440;51.224;22.506;2024-02-23T12:07:15;97802.19;;;7.97;92.84
62402;BME280;48440;51.224;22.506;2024-02-23T12:09:47;97806.78;;;7.92;94.04
62402;BME280;48440;51.224;22.506;2024-02-23T12:12:45;97803.56;;;7.95;93.77
62402;BME280;48440;51.224;22.506;2024-02-23T12:48:56;97817.88;;;7.95;94.32
62402;BME280;48440;51.224;22.506;2024-02-23T12:51:33;97821.91;;;7.93;93.98
62402;BME280;48440;51.224;22.506;2024-02-23T13:08:40;97843.53;;;7.98;95.03
62402;BME280;48440;51.224;22.506;2024-02-23T13:19:36;97847.03;;;7.98;95.24
62402;BME280;48440;51.224;22.506;2024-02-23T13:22:03;97850.28;;;8.00;95.12
62402;BME280;48440;51.224;22.506;2024-02-23T13:24:31;97854.06;;;8.04;95.12
62402;BME280;48440;51.224;22.506;2024-02-23T13:27:00;97841.63;;;8.03;95.40
62402;BME280;48440;51.224;22.506;2024-02-23T13:29:29;97835.97;;;8.05;95.08
62402;BME280;48440;51.224;22.506;2024-02-23T13:31:56;97847.31;;;8.02;94.56
62402;BME280;48440;51.224;22.506;2024-02-23T13:34:24;97843.78;;;8.01;95.37
62402;BME280;48440;51.224;22.506;2024-02-23T13:36:54;97850.00;;;8.02;95.22
62402;BME280;48440;51.224;22.506;2024-02-23T13:39:29;97852.97;;;8.00;95.33
62402;BME280;48440;51.224;22.506;2024-02-23T13:42:05;97861.59;;;8.07;95.40
62402;BME280;48440;51.224;22.506;2024-02-23T13:44:33;97855.91;;;8.09;94.72
62402;BME280;48440;51.224;22.506;2024-02-23T13:46:59;97858.63;;;8.09;94.51
62402;BME280;48440;51.224;22.506;2024-02-23T13:49:25;97854.28;;;8.08;94.72
62402;BME280;48440;51.224;22.506;2024-02-23T13:51:50;97868.63;;;8.08;94.69
62402;BME280;48440;51.224;22.506;2024-02-23T13:54:22;97866.75;;;8.04;94.32
62402;BME280;48440;51.224;22.506;2024-02-23T13:56:48;97871.88;;;8.05;94.65
62402;BME280;48440;51.224;22.506;2024-02-23T13:59:13;97879.97;;;8.10;95.63
62402;BME280;48440;51.224;22.506;2024-02-23T14:01:39;97873.22;;;8.08;95.27
62402;BME280;48440;51.224;22.506;2024-02-23T14:04:06;97873.22;;;8.08;95.91
62402;BME280;48440;51.224;22.506;2024-02-23T14:06:32;97874.06;;;8.03;96.36
62402;BME280;48440;51.224;22.506;2024-02-23T14:08:58;97874.56;;;8.10;96.13
62402;BME280;48440;51.224;22.506;2024-02-23T14:11:25;97865.38;;;8.11;96.21
62402;BME280;48440;51.224;22.506;2024-02-23T14:13:50;97872.94;;;8.09;95.08
62402;BME280;48440;51.224;22.506;2024-02-23T14:16:16;97868.63;;;8.13;95.49
62402;BME280;48440;51.224;22.506;2024-02-23T14:18:42;97872.66;;;8.16;94.93
62402;BME280;48440;51.224;22.506;2024-02-23T14:21:10;97878.34;;;8.14;95.70
62402;BME280;48440;51.224;22.506;2024-02-23T14:23:36;97881.59;;;8.11;95.42
62402;BME280;48440;51.224;22.506;2024-02-23T14:26:03;97874.81;;;8.14;95.71
62402;BME280;48440;51.224;22.506;2024-02-23T14:28:28;97876.19;;;8.16;95.46
62402;BME280;48440;51.224;22.506;2024-02-23T14:30:54;97881.56;;;8.16;95.52
62402;BME280;48440;51.224;22.506;2024-02-23T14:33:20;97883.47;;;8.16;95.54
62402;BME280;48440;51.224;22.506;2024-02-23T14:35:46;97884.56;;;8.15;95.76
62402;BME280;48440;51.224;22.506;2024-02-23T14:38:16;97876.19;;;8.11;96.17
62402;BME280;48440;51.224;22.506;2024-02-23T14:40:42;97883.75;;;8.09;95.87